sensor_id;sensor_type;location;lat;lon;timestamp;pressure;altitude;pressure_sealevel;temperature;humidity
24858;BME280;12935;50.782;6.074;2023-02-28T00:00:24;100707.84;;;0.93;100.00
24858;BME280;12935;50.782;6.074;2023-02-28T00:02:50;100714.09;;;1.02;100.00
24858;BME280;12935;50.782;6.074;2023-02-28T00:05:18;100712.22;;;0.89;100.00
24858;BME280;12935;50.782;6.074;2023-02-28T00:07:45;100707.50;;;0.95;100.00
24858;BME280;12935;50.782;6.074;2023-02-28T00:10:13;100700.75;;;0.84;100.00
24858;BME280;12935;50.782;6.074;2023-02-28T00:12:39;100711.50;;;0.84;100.00
24858;BME280;12935;50.782;6.074;2023-02-28T00:15:07;100716.19;;;0.78;100.00
24858;BME280;12935;50.782;6.074;2023-02-28T00:17:32;100712.97;;;0.49;100.00
24858;BME280;12935;50.782;6.074;2023-02-28T00:19:57;100709.19;;;0.63;100.00
24858;BME280;12935;50.782;6.074;2023-02-28T00:22:35;100714.59;;;0.77;100.00
24858;BME280;12935;50.782;6.074;2023-02-28T00:25:01;100718.38;;;0.76;100.00
24858;BME280;12935;50.782;6.074;2023-02-28T00:27:27;100708.59;;;0.80;100.00
24858;BME280;12935;50.782;6.074;2023-02-28T00:29:52;100710.69;;;0.83;100.00
24858;BME280;12935;50.782;6.074;2023-02-28T00:32:19;100712.31;;;0.84;100.00
24858;BME280;12935;50.782;6.074;2023-02-28T00:34:47;100709.59;;;0.70;100.00
24858;BME280;12935;50.782;6.074;2023-02-28T00:37:13;100709.09;;;0.82;100.00
24858;BME280;12935;50.782;6.074;2023-02-28T00:39:39;100726.16;;;0.78;100.00
24858;BME280;12935;50.782;6.074;2023-02-28T00:42:05;100708.31;;;0.82;100.00
24858;BME280;12935;50.782;6.074;2023-02-28T00:44:31;100717.19;;;0.82;100.00
24858;BME280;12935;50.782;6.074;2023-02-28T00:46:57;100707.63;;;0.90;100.00
24858;BME280;12935;50.782;6.074;2023-02-28T00:49:23;100716.19;;;0.92;100.00
24858;BME280;12935;50.782;6.074;2023-02-28T00:51:49;100724.56;;;0.77;100.00
24858;BME280;12935;50.782;6.074;2023-02-28T00:54:14;100717.88;;;0.74;100.00
24858;BME280;12935;50.782;6.074;2023-02-28T00:56:40;100722.56;;;0.82;100.00
24858;BME280;12935;50.782;6.074;2023-02-28T00:59:05;100717.47;;;0.81;100.00
24858;BME280;12935;50.782;6.074;2023-02-28T01:01:31;100719.56;;;0.84;100.00
24858;BME280;12935;50.782;6.074;2023-02-28T01:03:57;100721.47;;;0.83;100.00
24858;BME280;12935;50.782;6.074;2023-02-28T01:06:22;100728.84;;;0.78;100.00
24858;BME280;12935;50.782;6.074;2023-02-28T01:08:48;100713.31;;;0.75;100.00
24858;BME280;12935;50.782;6.074;2023-02-28T01:11:16;100719.56;;;0.70;100.00
24858;BME280;12935;50.782;6.074;2023-02-28T01:13:42;100722.97;;;0.62;100.00
24858;BME280;12935;50.782;6.074;2023-02-28T01:16:08;100725.81;;;0.52;100.00
24858;BME280;12935;50.782;6.074;2023-02-28T01:18:33;100731.97;;;0.39;100.00
24858;BME280;12935;50.782;6.074;2023-02-28T01:21:03;100723.31;;;0.42;100.00
24858;BME280;12935;50.782;6.074;2023-02-28T01:23:29;100730.88;;;0.40;100.00
24858;BME280;12935;50.782;6.074;2023-02-28T01:25:54;100731.13;;;0.24;100.00
24858;BME280;12935;50.782;6.074;2023-02-28T01:28:20;100732.66;;;0.30;100.00
24858;BME280;12935;50.782;6.074;2023-02-28T01:30:50;100727.69;;;0.38;100.00
24858;BME280;12935;50.782;6.074;2023-02-28T01:33:15;100726.78;;;0.28;100.00
24858;BME280;12935;50.782;6.074;2023-02-28T01:35:41;100719.88;;;0.22;100.00
24858;BME280;12935;50.782;6.074;2023-02-28T01:38:06;100722.19;;;0.29;100.00
24858;BME280;12935;50.782;6.074;2023-02-28T01:40:32;100718.50;;;0.25;100.00
24858;BME280;12935;50.782;6.074;2023-02-28T01:42:57;100716.97;;;0.19;100.00
24858;BME280;12935;50.782;6.074;2023-02-28T01:45:28;100729.09;;;0.16;100.00
24858;BME280;12935;50.782;6.074;2023-02-28T01:47:59;100718.78;;;0.23;100.00
24858;BME280;12935;50.782;6.074;2023-02-28T01:50:28;100731.75;;;0.35;100.00
24858;BME280;12935;50.782;6.074;2023-02-28T01:52:57;100721.28;;;0.33;100.00
24858;BME280;12935;50.782;6.074;2023-02-28T01:55:25;100718.13;;;0.31;100.00
24858;BME280;12935;50.782;6.074;2023-02-28T01:57:58;100718.28;;;0.21;100.00
24858;BME280;12935;50.782;6.074;2023-02-28T02:00:26;100715.84;;;0.06;100.00
24858;BME280;12935;50.782;6.074;2023-02-28T02:02:55;100712.59;;;-0.10;100.00
24858;BME280;12935;50.782;6.074;2023-02-28T02:05:25;100716.53;;;-0.02;100.00
24858;BME280;12935;50.782;6.074;2023-02-28T02:07:55;100712.19;;;-0.17;100.00
24858;BME280;12935;50.782;6.074;2023-02-28T02:10:31;100707.69;;;-0.21;100.00
24858;BME280;12935;50.782;6.074;2023-02-28T02:16:27;100701.50;;;-0.22;100.00
24858;BME280;12935;50.782;6.074;2023-02-28T02:22:15;100700.47;;;-0.07;100.00
24858;BME280;12935;50.782;6.074;2023-02-28T02:36:17;100698.91;;;-0.27;100.00
24858;BME280;12935;50.782;6.074;2023-02-28T02:38:58;100702.25;;;-0.35;100.00
24858;BME280;12935;50.782;6.074;2023-02-28T02:41:40;100696.38;;;-0.37;100.00
24858;BME280;12935;50.782;6.074;2023-02-28T02:44:17;100695.13;;;-0.26;100.00
24858;BME280;12935;50.782;6.074;2023-02-28T02:46:47;100696.16;;;-0.41;100.00
24858;BME280;12935;50.782;6.074;2023-02-28T02:49:20;100685.69;;;-0.42;100.00
24858;BME280;12935;50.782;6.074;2023-02-28T02:51:48;100690.31;;;-0.29;100.00
24858;BME280;12935;50.782;6.074;2023-02-28T02:54:21;100690.78;;;-0.22;100.00
24858;BME280;12935;50.782;6.074;2023-02-28T02:56:49;100693.97;;;-0.20;100.00
24858;BME280;12935;50.782;6.074;2023-02-28T02:59:18;100687.50;;;-0.19;100.00
24858;BME280;12935;50.782;6.074;2023-02-28T03:01:49;100697.97;;;-0.17;100.00
24858;BME280;12935;50.782;6.074;2023-02-28T03:04:21;100694.50;;;-0.37;100.00
24858;BME280;12935;50.782;6.074;2023-02-28T03:06:47;100692.72;;;-0.46;100.00
24858;BME280;12935;50.782;6.074;2023-02-28T03:09:13;100690.78;;;-0.41;100.00
24858;BME280;12935;50.782;6.074;2023-02-28T03:11:40;100693.31;;;-0.30;100.00
24858;BME280;12935;50.782;6.074;2023-02-28T03:17:21;100687.28;;;-0.22;100.00
24858;BME280;12935;50.782;6.074;2023-02-28T03:20:01;100690.47;;;-0.20;100.00
24858;BME280;12935;50.782;6.074;2023-02-28T03:22:35;100679.84;;;-0.12;100.00
24858;BME280;12935;50.782;6.074;2023-02-28T03:25:35;100674.63;;;-0.03;100.00
24858;BME280;12935;50.782;6.074;2023-02-28T03:31:26;100677.94;;;-0.44;100.00
24858;BME280;12935;50.782;6.074;2023-02-28T03:34:10;100681.72;;;-0.45;100.00
24858;BME280;12935;50.782;6.074;2023-02-28T03:36:46;100681.69;;;-0.26;100.00
24858;BME280;12935;50.782;6.074;2023-02-28T03:39:21;100675.69;;;-0.18;100.00
24858;BME280;12935;50.782;6.074;2023-02-28T03:44:24;100679.22;;;-0.04;100.00
24858;BME280;12935;50.782;6.074;2023-02-28T03:47:02;100673.34;;;0.08;100.00
24858;BME280;12935;50.782;6.074;2023-02-28T03:49:35;100680.84;;;0.11;100.00
24858;BME280;12935;50.782;6.074;2023-02-28T03:52:06;100682.31;;;0.17;100.00
24858;BME280;12935;50.782;6.074;2023-02-28T03:54:36;100690.88;;;0.06;100.00
24858;BME280;12935;50.782;6.074;2023-02-28T03:59:43;100685.56;;;-0.32;100.00
24858;BME280;12935;50.782;6.074;2023-02-28T04:02:09;100690.28;;;-0.43;100.00
24858;BME280;12935;50.782;6.074;2023-02-28T04:04:35;100687.69;;;-0.48;100.00
24858;BME280;12935;50.782;6.074;2023-02-28T04:07:05;100683.53;;;-0.40;100.00
24858;BME280;12935;50.782;6.074;2023-02-28T04:09:30;100685.75;;;-0.47;100.00
24858;BME280;12935;50.782;6.074;2023-02-28T04:11:56;100684.81;;;-0.75;100.00
24858;BME280;12935;50.782;6.074;2023-02-28T04:14:22;100688.50;;;-0.90;100.00
24858;BME280;12935;50.782;6.074;2023-02-28T04:16:47;100687.16;;;-0.68;100.00
24858;BME280;12935;50.782;6.074;2023-02-28T04:19:14;100681.63;;;-0.58;100.00
24858;BME280;12935;50.782;6.074;2023-02-28T04:21:48;100681.13;;;-0.42;100.00
24858;BME280;12935;50.782;6.074;2023-02-28T04:24:21;100682.16;;;-0.38;100.00
24858;BME280;12935;50.782;6.074;2023-02-28T04:26:49;100682.50;;;-0.63;100.00
24858;BME280;12935;50.782;6.074;2023-02-28T04:29:21;100684.66;;;-1.02;100.00
24858;BME280;12935;50.782;6.074;2023-02-28T04:31:47;100691.84;;;-0.98;100.00
24858;BME280;12935;50.782;6.074;2023-02-28T04:34:13;100685.09;;;-0.77;100.00
24858;BME280;12935;50.782;6.074;2023-02-28T04:36:38;100684.00;;;-0.94;100.00
24858;BME280;12935;50.782;6.074;2023-02-28T04:39:04;100691.66;;;-1.07;100.00
24858;BME280;12935;50.782;6.074;2023-02-28T04:41:29;100696.69;;;-1.00;100.00
24858;BME280;12935;50.782;6.074;2023-02-28T04:43:55;100686.47;;;-0.98;100.00
24858;BME280;12935;50.782;6.074;2023-02-28T04:46:21;100685.91;;;-0.76;100.00
24858;BME280;12935;50.782;6.074;2023-02-28T04:48:47;100693.03;;;-0.66;100.00
24858;BME280;12935;50.782;6.074;2023-02-28T04:51:13;100696.03;;;-0.92;100.00
24858;BME280;12935;50.782;6.074;2023-02-28T04:53:40;100696.75;;;-1.05;100.00
24858;BME280;12935;50.782;6.074;2023-02-28T04:56:15;100700.78;;;-1.08;100.00
24858;BME280;12935;50.782;6.074;2023-02-28T04:58:41;100698.81;;;-0.97;100.00
24858;BME280;12935;50.782;6.074;2023-02-28T05:01:18;100703.31;;;-0.74;100.00
24858;BME280;12935;50.782;6.074;2023-02-28T05:03:44;100713.16;;;-0.88;100.00
24858;BME280;12935;50.782;6.074;2023-02-28T05:06:11;100703.88;;;-0.77;100.00
24858;BME280;12935;50.782;6.074;2023-02-28T05:08:37;100714.03;;;-0.92;100.00
24858;BME280;12935;50.782;6.074;2023-02-28T05:11:06;100709.59;;;-1.02;100.00
24858;BME280;12935;50.782;6.074;2023-02-28T05:13:32;100707.31;;;-0.71;100.00
24858;BME280;12935;50.782;6.074;2023-02-28T05:15:57;100704.41;;;-0.56;100.00
24858;BME280;12935;50.782;6.074;2023-02-28T05:18:22;100710.59;;;-0.55;100.00
24858;BME280;12935;50.782;6.074;2023-02-28T05:20:48;100707.53;;;-0.67;100.00
24858;BME280;12935;50.782;6.074;2023-02-28T05:23:14;100707.41;;;-1.00;100.00
24858;BME280;12935;50.782;6.074;2023-02-28T05:25:41;100710.63;;;-0.98;100.00
24858;BME280;12935;50.782;6.074;2023-02-28T05:28:09;100707.75;;;-0.83;100.00
24858;BME280;12935;50.782;6.074;2023-02-28T05:30:35;100711.59;;;-0.70;100.00
24858;BME280;12935;50.782;6.074;2023-02-28T05:33:00;100710.75;;;-0.65;100.00
24858;BME280;12935;50.782;6.074;2023-02-28T05:35:26;100703.84;;;-0.72;100.00
24858;BME280;12935;50.782;6.074;2023-02-28T05:37:52;100714.72;;;-0.63;100.00
24858;BME280;12935;50.782;6.074;2023-02-28T05:40:17;100709.13;;;-0.85;100.00
24858;BME280;12935;50.782;6.074;2023-02-28T05:42:45;100714.78;;;-0.68;100.00
24858;BME280;12935;50.782;6.074;2023-02-28T05:45:11;100714.31;;;-0.94;100.00
24858;BME280;12935;50.782;6.074;2023-02-28T05:47:37;100707.03;;;-0.69;100.00
24858;BME280;12935;50.782;6.074;2023-02-28T05:50:04;100709.66;;;-0.64;100.00
24858;BME280;12935;50.782;6.074;2023-02-28T05:52:29;100709.16;;;-0.66;100.00
24858;BME280;12935;50.782;6.074;2023-02-28T05:54:56;100704.97;;;-0.78;100.00
24858;BME280;12935;50.782;6.074;2023-02-28T05:57:22;100701.50;;;-0.78;100.00
24858;BME280;12935;50.782;6.074;2023-02-28T05:59:47;100706.00;;;-0.74;100.00
24858;BME280;12935;50.782;6.074;2023-02-28T06:02:15;100701.09;;;-0.66;100.00
24858;BME280;12935;50.782;6.074;2023-02-28T06:04:41;100708.03;;;-0.84;100.00
24858;BME280;12935;50.782;6.074;2023-02-28T06:07:07;100711.78;;;-0.85;100.00
24858;BME280;12935;50.782;6.074;2023-02-28T06:09:33;100709.44;;;-1.11;100.00
24858;BME280;12935;50.782;6.074;2023-02-28T06:11:59;100710.84;;;-1.18;100.00
24858;BME280;12935;50.782;6.074;2023-02-28T06:14:26;100716.97;;;-1.13;100.00
24858;BME280;12935;50.782;6.074;2023-02-28T06:16:52;100711.59;;;-1.13;100.00
24858;BME280;12935;50.782;6.074;2023-02-28T06:19:17;100713.81;;;-1.20;100.00
24858;BME280;12935;50.782;6.074;2023-02-28T06:21:43;100717.81;;;-1.17;100.00
24858;BME280;12935;50.782;6.074;2023-02-28T06:24:09;100721.44;;;-1.08;100.00
24858;BME280;12935;50.782;6.074;2023-02-28T06:26:34;100722.03;;;-1.11;100.00
24858;BME280;12935;50.782;6.074;2023-02-28T06:29:00;100727.56;;;-1.02;100.00
24858;BME280;12935;50.782;6.074;2023-02-28T06:31:26;100727.44;;;-1.16;100.00
24858;BME280;12935;50.782;6.074;2023-02-28T06:33:54;100722.03;;;-1.11;100.00
24858;BME280;12935;50.782;6.074;2023-02-28T06:36:19;100724.09;;;-1.27;100.00
24858;BME280;12935;50.782;6.074;2023-02-28T06:38:45;100736.06;;;-1.43;100.00
24858;BME280;12935;50.782;6.074;2023-02-28T06:41:11;100733.97;;;-1.51;100.00
24858;BME280;12935;50.782;6.074;2023-02-28T06:43:39;100735.41;;;-1.59;100.00
24858;BME280;12935;50.782;6.074;2023-02-28T06:46:08;100747.69;;;-1.29;100.00
24858;BME280;12935;50.782;6.074;2023-02-28T06:48:34;100744.75;;;-1.27;100.00
24858;BME280;12935;50.782;6.074;2023-02-28T06:51:04;100747.56;;;-1.43;100.00
24858;BME280;12935;50.782;6.074;2023-02-28T06:53:30;100744.38;;;-1.45;100.00
24858;BME280;12935;50.782;6.074;2023-02-28T06:55:55;100751.41;;;-1.25;100.00
24858;BME280;12935;50.782;6.074;2023-02-28T06:58:21;100755.59;;;-1.14;100.00
24858;BME280;12935;50.782;6.074;2023-02-28T07:00:51;100761.44;;;-1.35;100.00
24858;BME280;12935;50.782;6.074;2023-02-28T07:03:17;100767.31;;;-1.33;100.00
24858;BME280;12935;50.782;6.074;2023-02-28T07:05:44;100768.94;;;-1.37;100.00
24858;BME280;12935;50.782;6.074;2023-02-28T07:08:09;100771.13;;;-1.39;100.00
24858;BME280;12935;50.782;6.074;2023-02-28T07:10:37;100771.25;;;-1.26;100.00
24858;BME280;12935;50.782;6.074;2023-02-28T07:13:04;100778.50;;;-1.26;100.00
24858;BME280;12935;50.782;6.074;2023-02-28T07:15:29;100773.72;;;-1.06;100.00
24858;BME280;12935;50.782;6.074;2023-02-28T07:17:54;100765.63;;;-1.00;100.00
24858;BME280;12935;50.782;6.074;2023-02-28T07:20:21;100777.56;;;-0.88;100.00
24858;BME280;12935;50.782;6.074;2023-02-28T07:22:46;100763.28;;;-0.83;100.00
24858;BME280;12935;50.782;6.074;2023-02-28T07:25:16;100774.31;;;-0.85;100.00
24858;BME280;12935;50.782;6.074;2023-02-28T07:27:42;100774.88;;;-0.88;100.00
24858;BME280;12935;50.782;6.074;2023-02-28T07:30:07;100773.78;;;-0.87;100.00
24858;BME280;12935;50.782;6.074;2023-02-28T07:32:33;100777.38;;;-0.73;100.00
24858;BME280;12935;50.782;6.074;2023-02-28T07:34:58;100773.91;;;-0.73;100.00
24858;BME280;12935;50.782;6.074;2023-02-28T07:37:24;100771.44;;;-0.93;100.00
24858;BME280;12935;50.782;6.074;2023-02-28T07:39:49;100775.34;;;-0.62;100.00
24858;BME280;12935;50.782;6.074;2023-02-28T07:42:14;100775.75;;;-0.50;100.00
24858;BME280;12935;50.782;6.074;2023-02-28T07:44:40;100778.16;;;-0.48;100.00
24858;BME280;12935;50.782;6.074;2023-02-28T07:47:07;100772.28;;;-0.31;100.00
24858;BME280;12935;50.782;6.074;2023-02-28T07:49:33;100770.91;;;-0.10;100.00
24858;BME280;12935;50.782;6.074;2023-02-28T07:51:59;100771.69;;;0.09;100.00
24858;BME280;12935;50.782;6.074;2023-02-28T07:54:24;100775.75;;;0.25;100.00
24858;BME280;12935;50.782;6.074;2023-02-28T07:56:49;100767.00;;;0.33;100.00
24858;BME280;12935;50.782;6.074;2023-02-28T07:59:15;100777.00;;;0.47;100.00
24858;BME280;12935;50.782;6.074;2023-02-28T08:01:40;100772.53;;;0.56;100.00
24858;BME280;12935;50.782;6.074;2023-02-28T08:04:06;100774.34;;;0.60;100.00
24858;BME280;12935;50.782;6.074;2023-02-28T08:06:31;100784.13;;;0.70;100.00
24858;BME280;12935;50.782;6.074;2023-02-28T08:08:56;100777.28;;;0.78;99.42
24858;BME280;12935;50.782;6.074;2023-02-28T08:11:22;100777.66;;;0.85;98.19
24858;BME280;12935;50.782;6.074;2023-02-28T08:13:48;100792.91;;;0.76;97.42
24858;BME280;12935;50.782;6.074;2023-02-28T08:16:14;100782.25;;;0.84;97.69
24858;BME280;12935;50.782;6.074;2023-02-28T08:18:47;100792.34;;;0.92;95.82
24858;BME280;12935;50.782;6.074;2023-02-28T08:21:13;100785.47;;;1.00;95.24
24858;BME280;12935;50.782;6.074;2023-02-28T08:23:38;100777.81;;;1.07;94.59
24858;BME280;12935;50.782;6.074;2023-02-28T08:26:04;100781.97;;;1.13;93.36
24858;BME280;12935;50.782;6.074;2023-02-28T08:28:30;100783.78;;;0.90;92.92
24858;BME280;12935;50.782;6.074;2023-02-28T08:30:55;100776.78;;;1.03;93.88
24858;BME280;12935;50.782;6.074;2023-02-28T08:33:21;100774.59;;;1.19;93.52
24858;BME280;12935;50.782;6.074;2023-02-28T08:35:48;100777.88;;;1.29;92.54
24858;BME280;12935;50.782;6.074;2023-02-28T08:38:13;100783.09;;;1.39;91.42
24858;BME280;12935;50.782;6.074;2023-02-28T08:40:38;100786.66;;;1.49;90.03
24858;BME280;12935;50.782;6.074;2023-02-28T08:43:04;100777.06;;;1.56;89.02
24858;BME280;12935;50.782;6.074;2023-02-28T08:45:29;100780.94;;;1.64;88.28
24858;BME280;12935;50.782;6.074;2023-02-28T08:47:55;100783.09;;;1.75;86.89
24858;BME280;12935;50.782;6.074;2023-02-28T08:50:21;100786.69;;;1.85;85.97
24858;BME280;12935;50.782;6.074;2023-02-28T08:52:47;100778.19;;;1.91;84.99
24858;BME280;12935;50.782;6.074;2023-02-28T08:55:12;100772.88;;;2.00;83.60
24858;BME280;12935;50.782;6.074;2023-02-28T08:57:37;100774.03;;;2.07;82.69
24858;BME280;12935;50.782;6.074;2023-02-28T09:00:03;100773.31;;;2.16;80.60
24858;BME280;12935;50.782;6.074;2023-02-28T09:02:30;100785.75;;;2.25;79.57
24858;BME280;12935;50.782;6.074;2023-02-28T09:04:55;100780.72;;;2.32;78.38
24858;BME280;12935;50.782;6.074;2023-02-28T09:07:21;100778.22;;;2.36;76.40
24858;BME280;12935;50.782;6.074;2023-02-28T09:09:47;100783.97;;;2.43;75.73
24858;BME280;12935;50.782;6.074;2023-02-28T09:12:26;100782.81;;;2.35;73.79
24858;BME280;12935;50.782;6.074;2023-02-28T09:14:53;100781.47;;;2.46;73.07
24858;BME280;12935;50.782;6.074;2023-02-28T09:17:19;100770.41;;;2.57;70.89
24858;BME280;12935;50.782;6.074;2023-02-28T09:19:44;100780.78;;;2.63;69.50
24858;BME280;12935;50.782;6.074;2023-02-28T09:22:11;100783.66;;;2.67;68.60
24858;BME280;12935;50.782;6.074;2023-02-28T09:24:37;100764.75;;;2.67;68.17
24858;BME280;12935;50.782;6.074;2023-02-28T09:27:03;100782.06;;;2.66;66.65
24858;BME280;12935;50.782;6.074;2023-02-28T09:29:30;100762.53;;;2.69;65.36
24858;BME280;12935;50.782;6.074;2023-02-28T09:31:55;100773.88;;;2.79;65.62
24858;BME280;12935;50.782;6.074;2023-02-28T09:34:24;100762.91;;;2.85;64.25
24858;BME280;12935;50.782;6.074;2023-02-28T09:36:49;100766.91;;;2.87;64.29
24858;BME280;12935;50.782;6.074;2023-02-28T09:39:20;100773.31;;;3.00;64.21
24858;BME280;12935;50.782;6.074;2023-02-28T09:41:48;100766.22;;;3.12;63.32
24858;BME280;12935;50.782;6.074;2023-02-28T09:44:22;100773.91;;;3.36;62.04
24858;BME280;12935;50.782;6.074;2023-02-28T09:46:54;100754.38;;;3.48;60.22
24858;BME280;12935;50.782;6.074;2023-02-28T09:49:31;100757.47;;;3.72;60.12
24858;BME280;12935;50.782;6.074;2023-02-28T09:52:02;100751.59;;;3.87;57.99
24858;BME280;12935;50.782;6.074;2023-02-28T09:54:30;100751.75;;;4.08;57.00
24858;BME280;12935;50.782;6.074;2023-02-28T09:57:09;100756.75;;;4.62;56.55
24858;BME280;12935;50.782;6.074;2023-02-28T09:59:54;100760.09;;;5.05;53.40
24858;BME280;12935;50.782;6.074;2023-02-28T10:05:08;100770.66;;;5.57;51.59
24858;BME280;12935;50.782;6.074;2023-02-28T10:07:50;100760.34;;;5.21;50.80
24858;BME280;12935;50.782;6.074;2023-02-28T10:10:24;100763.00;;;4.91;50.51
24858;BME280;12935;50.782;6.074;2023-02-28T10:12:53;100763.50;;;5.52;50.25
24858;BME280;12935;50.782;6.074;2023-02-28T10:15:23;100756.13;;;6.24;49.36
24858;BME280;12935;50.782;6.074;2023-02-28T10:17:53;100768.97;;;6.81;48.55
24858;BME280;12935;50.782;6.074;2023-02-28T10:20:22;100756.28;;;6.73;48.00
24858;BME280;12935;50.782;6.074;2023-02-28T10:23:20;100754.38;;;6.85;46.68
24858;BME280;12935;50.782;6.074;2023-02-28T10:25:52;100758.13;;;7.29;45.12
24858;BME280;12935;50.782;6.074;2023-02-28T10:28:19;100754.03;;;7.48;45.01
24858;BME280;12935;50.782;6.074;2023-02-28T10:30:50;100757.09;;;6.97;45.43
24858;BME280;12935;50.782;6.074;2023-02-28T10:33:19;100767.31;;;7.00;43.34
24858;BME280;12935;50.782;6.074;2023-02-28T10:35:48;100756.25;;;6.60;43.53
24858;BME280;12935;50.782;6.074;2023-02-28T10:38:17;100769.91;;;6.97;42.88
24858;BME280;12935;50.782;6.074;2023-02-28T10:40:43;100759.38;;;7.32;42.21
24858;BME280;12935;50.782;6.074;2023-02-28T10:45:53;100759.22;;;7.77;40.39
24858;BME280;12935;50.782;6.074;2023-02-28T10:53:31;100740.78;;;7.46;39.94
24858;BME280;12935;50.782;6.074;2023-02-28T11:03:47;100750.19;;;7.12;40.02
24858;BME280;12935;50.782;6.074;2023-02-28T11:06:16;100742.69;;;7.58;39.67
24858;BME280;12935;50.782;6.074;2023-02-28T11:08:48;100737.00;;;7.75;38.59
24858;BME280;12935;50.782;6.074;2023-02-28T11:11:14;100744.09;;;7.92;38.48
24858;BME280;12935;50.782;6.074;2023-02-28T11:13:39;100732.34;;;8.43;38.85
24858;BME280;12935;50.782;6.074;2023-02-28T11:16:07;100735.19;;;8.78;37.80
24858;BME280;12935;50.782;6.074;2023-02-28T11:18:54;100720.84;;;9.48;37.21
24858;BME280;12935;50.782;6.074;2023-02-28T11:21:26;100712.38;;;9.88;36.85
24858;BME280;12935;50.782;6.074;2023-02-28T11:24:02;100727.19;;;10.06;36.41
24858;BME280;12935;50.782;6.074;2023-02-28T11:26:44;100729.84;;;9.48;35.58
24858;BME280;12935;50.782;6.074;2023-02-28T11:34:30;100725.94;;;10.42;34.86
24858;BME280;12935;50.782;6.074;2023-02-28T11:36:58;100719.59;;;10.80;34.10
24858;BME280;12935;50.782;6.074;2023-02-28T11:39:25;100725.94;;;10.42;33.24
24858;BME280;12935;50.782;6.074;2023-02-28T11:47:41;100724.31;;;11.33;34.24
24858;BME280;12935;50.782;6.074;2023-02-28T11:56:23;100732.50;;;11.59;32.65
24858;BME280;12935;50.782;6.074;2023-02-28T11:58:54;100734.19;;;11.93;32.53
24858;BME280;12935;50.782;6.074;2023-02-28T12:01:38;100720.50;;;11.67;32.46
24858;BME280;12935;50.782;6.074;2023-02-28T12:04:22;100721.03;;;12.06;32.54
24858;BME280;12935;50.782;6.074;2023-02-28T12:06:53;100707.34;;;12.47;31.89
24858;BME280;12935;50.782;6.074;2023-02-28T12:12:32;100709.00;;;13.50;30.28
24858;BME280;12935;50.782;6.074;2023-02-28T12:25:55;100716.59;;;12.32;30.56
24858;BME280;12935;50.782;6.074;2023-02-28T12:28:28;100710.00;;;12.36;30.73
24858;BME280;12935;50.782;6.074;2023-02-28T12:31:00;100702.00;;;13.09;29.79
24858;BME280;12935;50.782;6.074;2023-02-28T12:33:33;100700.69;;;13.43;30.02
24858;BME280;12935;50.782;6.074;2023-02-28T12:36:05;100699.63;;;13.04;29.22
24858;BME280;12935;50.782;6.074;2023-02-28T12:38:42;100713.16;;;12.38;30.66
24858;BME280;12935;50.782;6.074;2023-02-28T12:41:27;100700.66;;;12.85;30.06
24858;BME280;12935;50.782;6.074;2023-02-28T12:44:03;100710.06;;;13.39;29.90
24858;BME280;12935;50.782;6.074;2023-02-28T12:46:48;100697.59;;;12.49;30.09
24858;BME280;12935;50.782;6.074;2023-02-28T12:49:25;100695.81;;;13.15;29.84
24858;BME280;12935;50.782;6.074;2023-02-28T12:51:53;100688.44;;;12.79;29.15
24858;BME280;12935;50.782;6.074;2023-02-28T12:54:32;100687.91;;;12.59;31.07
24858;BME280;12935;50.782;6.074;2023-02-28T12:57:14;100685.78;;;12.86;30.55
24858;BME280;12935;50.782;6.074;2023-02-28T13:10:06;100668.28;;;13.66;27.74
24858;BME280;12935;50.782;6.074;2023-02-28T13:12:33;100663.00;;;14.48;27.78
24858;BME280;12935;50.782;6.074;2023-02-28T13:17:40;100671.91;;;15.73;26.98
24858;BME280;12935;50.782;6.074;2023-02-28T13:20:31;100669.91;;;15.77;26.59
24858;BME280;12935;50.782;6.074;2023-02-28T13:22:58;100666.72;;;15.89;26.37
24858;BME280;12935;50.782;6.074;2023-02-28T13:28:11;100664.09;;;15.57;26.23
24858;BME280;12935;50.782;6.074;2023-02-28T13:33:35;100649.19;;;16.24;25.63
24858;BME280;12935;50.782;6.074;2023-02-28T13:36:28;100654.97;;;16.44;26.19
24858;BME280;12935;50.782;6.074;2023-02-28T13:39:02;100659.31;;;16.93;25.43
24858;BME280;12935;50.782;6.074;2023-02-28T13:44:11;100643.25;;;19.96;22.68
24858;BME280;12935;50.782;6.074;2023-02-28T13:52:19;100643.72;;;26.82;16.28
24858;BME280;12935;50.782;6.074;2023-02-28T13:54:56;100643.16;;;28.28;16.30
24858;BME280;12935;50.782;6.074;2023-02-28T13:57:40;100648.97;;;28.25;15.17
24858;BME280;12935;50.782;6.074;2023-02-28T14:03:01;100641.97;;;30.14;14.61
24858;BME280;12935;50.782;6.074;2023-02-28T14:05:32;100651.84;;;30.35;14.03
24858;BME280;12935;50.782;6.074;2023-02-28T14:08:25;100641.53;;;30.27;13.87
24858;BME280;12935;50.782;6.074;2023-02-28T14:11:02;100637.22;;;31.45;13.21
24858;BME280;12935;50.782;6.074;2023-02-28T14:13:46;100627.25;;;31.77;13.10
24858;BME280;12935;50.782;6.074;2023-02-28T14:16:23;100644.19;;;31.99;13.65
24858;BME280;12935;50.782;6.074;2023-02-28T14:19:12;100643.69;;;32.01;13.36
24858;BME280;12935;50.782;6.074;2023-02-28T14:21:47;100638.53;;;31.66;12.71
24858;BME280;12935;50.782;6.074;2023-02-28T14:37:41;100627.94;;;25.16;15.73
24858;BME280;12935;50.782;6.074;2023-02-28T14:40:16;100624.13;;;20.83;18.73
24858;BME280;12935;50.782;6.074;2023-02-28T14:42:48;100617.38;;;18.31;21.03
24858;BME280;12935;50.782;6.074;2023-02-28T14:45:21;100611.50;;;16.55;22.79
24858;BME280;12935;50.782;6.074;2023-02-28T14:47:47;100612.72;;;14.72;24.01
24858;BME280;12935;50.782;6.074;2023-02-28T14:50:20;100608.56;;;13.56;24.90
24858;BME280;12935;50.782;6.074;2023-02-28T14:52:46;100604.50;;;12.63;26.53
24858;BME280;12935;50.782;6.074;2023-02-28T14:55:17;100622.78;;;11.11;28.01
24858;BME280;12935;50.782;6.074;2023-02-28T14:57:55;100614.38;;;10.48;29.05
24858;BME280;12935;50.782;6.074;2023-02-28T15:00:30;100617.91;;;9.45;30.90